createdAt,value
2019-01-28T00:00:40.400Z,6.40
2019-01-28T00:01:40.422Z,8.70
2019-01-28T00:02:40.373Z,7.70
2019-01-28T00:03:40.371Z,7.60
2019-01-28T00:04:40.350Z,6.70
2019-01-28T00:05:41.234Z,6.30
2019-01-28T00:06:40.360Z,6.20
2019-01-28T00:07:40.331Z,9.80
2019-01-28T00:08:40.308Z,7.50
2019-01-28T00:09:40.307Z,6.10
2019-01-28T00:10:40.290Z,7.60
2019-01-28T00:11:40.308Z,4.40
2019-01-28T00:12:40.281Z,6.30
2019-01-28T00:13:40.261Z,6.80
2019-01-28T00:14:40.298Z,6.40
2019-01-28T00:15:40.262Z,6.20
2019-01-28T00:16:40.250Z,5.60
2019-01-28T00:17:40.216Z,5.50
2019-01-28T00:18:40.200Z,5.40
2019-01-28T00:19:40.194Z,8.10
2019-01-28T00:20:40.182Z,8.30
2019-01-28T00:21:40.199Z,5.70
2019-01-28T00:22:40.162Z,6.00
2019-01-28T00:23:40.148Z,8.50
2019-01-28T00:24:40.136Z,5.30
2019-01-28T00:25:40.123Z,5.80
2019-01-28T00:26:40.141Z,9.20
2019-01-28T00:27:40.101Z,6.30
2019-01-28T00:28:40.095Z,5.50
2019-01-28T00:29:40.086Z,6.20
2019-01-28T00:30:40.077Z,8.20
2019-01-28T00:31:40.081Z,8.00
2019-01-28T00:32:40.054Z,6.10
2019-01-28T00:33:40.037Z,7.30
2019-01-28T00:34:40.021Z,5.90
2019-01-28T00:35:40.019Z,7.20
2019-01-28T00:36:41.733Z,5.80
2019-01-28T00:37:39.993Z,4.90
2019-01-28T00:38:39.989Z,5.10
2019-01-28T00:39:39.965Z,5.40
2019-01-28T00:40:39.958Z,5.30
2019-01-28T00:41:39.972Z,5.70
2019-01-28T00:42:39.940Z,7.00
2019-01-28T00:43:39.929Z,5.50
2019-01-28T00:44:39.912Z,5.60
2019-01-28T00:45:39.902Z,4.80
2019-01-28T00:46:39.922Z,5.00
2019-01-28T00:47:39.889Z,5.90
2019-01-28T00:48:39.872Z,4.80
2019-01-28T00:49:39.860Z,6.70
2019-01-28T00:50:39.854Z,4.60
2019-01-28T00:51:39.861Z,6.50
2019-01-28T00:52:39.829Z,6.30
2019-01-28T00:53:39.809Z,5.40
2019-01-28T00:54:39.812Z,4.10
2019-01-28T00:55:39.793Z,3.70
2019-01-28T00:56:39.820Z,5.20
2019-01-28T00:57:39.770Z,5.30
2019-01-28T00:58:39.769Z,4.80
2019-01-28T00:59:39.749Z,5.00
2019-01-28T01:00:39.733Z,3.40
2019-01-28T01:01:39.726Z,2.50
2019-01-28T01:02:39.733Z,4.00
2019-01-28T01:03:39.703Z,3.40
2019-01-28T01:04:39.688Z,3.80
2019-01-28T01:05:39.685Z,3.30
2019-01-28T01:06:40.240Z,4.30
2019-01-28T01:07:39.668Z,3.80
2019-01-28T01:08:39.643Z,4.00
2019-01-28T01:09:39.644Z,4.30
2019-01-28T01:10:39.629Z,3.50
2019-01-28T01:11:39.633Z,3.00
2019-01-28T01:12:39.601Z,3.50
2019-01-28T01:13:39.590Z,2.30
2019-01-28T01:14:39.590Z,4.20
2019-01-28T01:15:39.577Z,3.70
2019-01-28T01:16:39.591Z,4.10
2019-01-28T01:17:39.554Z,2.70
2019-01-28T01:18:39.538Z,2.30
2019-01-28T01:19:39.533Z,2.30
2019-01-28T01:20:39.514Z,3.20
2019-01-28T01:21:39.538Z,3.00
2019-01-28T01:22:39.490Z,3.00
2019-01-28T01:23:39.483Z,3.20
2019-01-28T01:24:39.477Z,3.30
2019-01-28T01:25:39.460Z,3.10
2019-01-28T01:26:39.444Z,2.50
2019-01-28T01:27:40.238Z,2.40
2019-01-28T01:28:39.430Z,2.60
2019-01-28T01:29:39.413Z,2.20
2019-01-28T01:30:39.404Z,2.10
2019-01-28T01:31:39.389Z,2.70
2019-01-28T01:32:39.407Z,2.30
2019-01-28T01:33:39.373Z,2.40
2019-01-28T01:34:39.360Z,3.20
2019-01-28T01:35:39.354Z,3.30
2019-01-28T01:36:48.749Z,2.80
2019-01-28T01:37:39.350Z,2.50
2019-01-28T01:38:39.332Z,2.00
2019-01-28T01:39:48.774Z,2.20
2019-01-28T01:40:39.302Z,1.90
2019-01-28T01:42:56.480Z,1.90
2019-01-28T01:43:56.598Z,2.90
2019-01-28T01:44:56.431Z,2.30
2019-01-28T01:46:05.594Z,1.90
2019-01-28T01:46:56.427Z,3.60
2019-01-28T01:47:56.411Z,1.90
2019-01-28T01:48:56.406Z,1.90
2019-01-28T01:49:56.383Z,3.20
2019-01-28T01:50:56.364Z,2.60
2019-01-28T01:51:56.355Z,2.00
2019-01-28T01:52:56.342Z,2.40
2019-01-28T01:53:56.360Z,2.50
2019-01-28T01:54:56.319Z,1.70
2019-01-28T01:55:56.328Z,1.80
2019-01-28T01:56:56.301Z,2.30
2019-01-28T01:57:56.293Z,2.50
2019-01-28T01:58:57.122Z,2.10
2019-01-28T01:59:56.270Z,1.60
2019-01-28T02:00:56.260Z,2.50
2019-01-28T02:01:56.249Z,1.70
2019-01-28T02:02:56.243Z,1.60
2019-01-28T02:03:56.249Z,1.80
2019-01-28T02:05:05.626Z,2.00
2019-01-28T02:05:56.208Z,2.00
2019-01-28T02:06:56.199Z,2.00
2019-01-28T02:07:56.192Z,4.00
2019-01-28T02:08:56.197Z,1.70
2019-01-28T02:09:56.180Z,2.40
2019-01-28T02:10:56.152Z,2.20
2019-01-28T02:11:56.144Z,1.90
2019-01-28T02:12:56.123Z,2.90
2019-01-28T02:14:04.715Z,1.70
2019-01-28T02:14:56.100Z,3.70
2019-01-28T02:15:56.102Z,1.70
2019-01-28T02:16:56.080Z,2.20
2019-01-28T02:17:56.066Z,1.60
2019-01-28T02:18:56.080Z,2.60
2019-01-28T02:19:56.083Z,1.80
2019-01-28T02:20:56.035Z,1.40
2019-01-28T02:21:56.024Z,1.90
2019-01-28T02:22:56.014Z,1.90
2019-01-28T02:23:56.024Z,1.50
2019-01-28T02:24:55.998Z,1.70
2019-01-28T02:25:55.982Z,2.00
2019-01-28T02:26:55.972Z,1.70
2019-01-28T02:27:55.965Z,2.80
2019-01-28T02:28:55.969Z,2.10
2019-01-28T02:29:55.940Z,2.40
2019-01-28T02:30:55.934Z,2.00
2019-01-28T02:31:55.921Z,1.90
2019-01-28T02:32:55.905Z,1.50
2019-01-28T02:33:55.914Z,1.50
2019-01-28T02:34:55.879Z,3.00
2019-01-28T02:35:55.882Z,1.80
2019-01-28T02:36:55.860Z,2.20
2019-01-28T02:37:55.847Z,2.60
2019-01-28T02:38:55.835Z,4.10
2019-01-28T02:39:55.848Z,2.10
2019-01-28T02:40:55.822Z,1.40
2019-01-28T02:41:55.809Z,1.90
2019-01-28T02:42:55.794Z,2.80
2019-01-28T02:43:55.784Z,2.10
2019-01-28T02:44:55.801Z,1.60
2019-01-28T02:46:05.248Z,3.30
2019-01-28T02:46:55.756Z,2.50
2019-01-28T02:47:55.751Z,2.00
2019-01-28T02:48:55.791Z,2.20
2019-01-28T02:49:55.733Z,2.20
2019-01-28T02:50:55.728Z,1.50
2019-01-28T02:51:55.694Z,1.80
2019-01-28T02:52:55.709Z,2.10
2019-01-28T02:53:55.678Z,3.80
2019-01-28T02:54:55.658Z,2.80
2019-01-28T02:55:55.678Z,2.40
2019-01-28T02:56:55.639Z,2.20
2019-01-28T02:57:55.631Z,3.50
2019-01-28T02:58:55.621Z,3.30
2019-01-28T02:59:55.603Z,2.70
2019-01-28T03:00:55.599Z,3.40
2019-01-28T03:01:55.611Z,2.50
2019-01-28T03:02:55.577Z,2.20
2019-01-28T03:03:55.559Z,3.10
2019-01-28T03:04:55.548Z,3.50
2019-01-28T03:06:04.147Z,3.10
2019-01-28T03:06:55.530Z,3.00
2019-01-28T03:08:04.063Z,2.60
2019-01-28T03:09:04.835Z,2.80
2019-01-28T03:09:55.497Z,4.50
2019-01-28T03:11:04.878Z,2.30
2019-01-28T03:11:55.494Z,2.20
2019-01-28T03:12:55.461Z,2.60
2019-01-28T03:13:55.450Z,3.70
2019-01-28T03:15:04.913Z,3.00
2019-01-28T03:15:55.428Z,2.10
2019-01-28T03:17:05.488Z,3.60
2019-01-28T03:18:04.491Z,4.40
2019-01-28T03:19:04.519Z,2.60
2019-01-28T03:19:55.391Z,3.60
2019-01-28T03:20:55.374Z,2.30
2019-01-28T03:21:55.407Z,2.70
2019-01-28T03:22:55.357Z,2.90
2019-01-28T03:23:55.342Z,3.00
2019-01-28T03:24:55.334Z,2.80
2019-01-28T03:25:55.330Z,2.70
2019-01-28T03:26:55.320Z,1.90
2019-01-28T03:27:55.315Z,4.00
2019-01-28T03:28:55.286Z,3.00
2019-01-28T03:29:55.272Z,3.60
2019-01-28T03:30:55.266Z,3.60
2019-01-28T03:31:55.272Z,2.70
2019-01-28T03:32:55.267Z,2.30
2019-01-28T03:33:55.228Z,3.90
2019-01-28T03:34:55.220Z,2.90
2019-01-28T03:35:55.208Z,2.30
2019-01-28T03:36:55.220Z,2.60
2019-01-28T03:37:55.188Z,2.20
2019-01-28T03:38:55.175Z,3.60
2019-01-28T03:39:55.163Z,2.10
2019-01-28T03:40:55.154Z,2.80
2019-01-28T03:41:55.187Z,1.40
2019-01-28T03:42:55.129Z,1.70
2019-01-28T03:43:55.135Z,2.90
2019-01-28T03:44:55.109Z,1.80
2019-01-28T03:45:55.098Z,1.50
2019-01-28T03:46:55.086Z,2.50
2019-01-28T03:47:55.097Z,2.60
2019-01-28T03:48:55.064Z,2.70
2019-01-28T03:49:55.058Z,2.60
2019-01-28T03:50:55.048Z,2.00
2019-01-28T03:51:55.031Z,1.50
2019-01-28T03:52:55.041Z,1.80
2019-01-28T03:53:55.008Z,2.90
2019-01-28T03:54:55.001Z,1.60
2019-01-28T03:55:54.989Z,2.20
2019-01-28T03:56:54.981Z,1.90
2019-01-28T03:57:54.985Z,2.50
2019-01-28T03:58:54.952Z,1.20
2019-01-28T03:59:54.942Z,1.70
2019-01-28T04:00:54.939Z,2.50
2019-01-28T04:01:55.534Z,1.10
2019-01-28T04:02:54.953Z,1.90
2019-01-28T04:03:54.904Z,1.60
2019-01-28T04:04:54.887Z,1.60
2019-01-28T04:05:54.887Z,2.70
2019-01-28T04:06:54.867Z,1.50
2019-01-28T04:07:54.858Z,2.20
2019-01-28T04:08:56.572Z,4.00
2019-01-28T04:09:54.836Z,1.60
2019-01-28T04:10:54.894Z,1.10
2019-01-28T04:12:04.066Z,1.30
2019-01-28T04:13:03.391Z,1.10
2019-01-28T04:14:04.139Z,2.70
2019-01-28T04:15:04.173Z,1.70
2019-01-28T04:16:04.217Z,0.90
2019-01-28T04:17:05.252Z,1.00
2019-01-28T04:18:04.287Z,1.10
2019-01-28T04:18:54.763Z,1.80
2019-01-28T04:20:03.821Z,1.30
2019-01-28T04:20:54.734Z,1.30
2019-01-28T04:21:54.701Z,2.10
2019-01-28T04:22:54.717Z,1.00
2019-01-28T04:23:54.691Z,1.30
2019-01-28T04:24:54.670Z,1.50
2019-01-28T04:25:54.667Z,1.70
2019-01-28T04:26:54.647Z,1.10
2019-01-28T04:27:54.636Z,1.30
2019-01-28T04:28:54.647Z,1.00
2019-01-28T04:29:54.624Z,1.00
2019-01-28T04:30:54.610Z,1.10
2019-01-28T04:31:54.599Z,1.70
2019-01-28T04:32:54.586Z,1.30
2019-01-28T04:33:54.597Z,1.90
2019-01-28T04:34:54.566Z,1.30
2019-01-28T04:35:54.580Z,1.70
2019-01-28T04:36:54.546Z,0.90
2019-01-28T04:37:54.530Z,1.00
2019-01-28T04:38:56.171Z,0.80
2019-01-28T04:39:54.509Z,1.00
2019-01-28T04:40:54.505Z,2.30
2019-01-28T04:41:54.491Z,1.10
2019-01-28T04:42:54.475Z,1.80
2019-01-28T04:43:54.490Z,3.50
2019-01-28T04:44:54.455Z,1.80
2019-01-28T04:45:54.440Z,1.30
2019-01-28T04:46:54.431Z,0.80
2019-01-28T04:47:54.419Z,0.70
2019-01-28T04:48:54.432Z,1.70
2019-01-28T04:49:54.397Z,1.80
2019-01-28T04:50:54.385Z,1.30
2019-01-28T04:51:54.374Z,1.80
2019-01-28T04:52:54.363Z,2.80
2019-01-28T04:53:54.375Z,1.60
2019-01-28T04:54:54.341Z,1.10
2019-01-28T04:55:54.333Z,1.30
2019-01-28T04:56:54.318Z,1.20
2019-01-28T04:57:54.307Z,1.20
2019-01-28T04:58:55.853Z,1.20
2019-01-28T04:59:54.303Z,3.10
2019-01-28T05:00:54.273Z,1.40
2019-01-28T05:01:54.264Z,1.70
2019-01-28T05:02:54.251Z,1.30
2019-01-28T05:03:54.241Z,2.30
2019-01-28T05:04:54.250Z,1.60
2019-01-28T05:05:54.221Z,1.30
2019-01-28T05:06:54.206Z,1.20
2019-01-28T05:07:54.199Z,1.20
2019-01-28T05:08:54.186Z,1.10
2019-01-28T05:09:54.199Z,1.10
2019-01-28T05:10:54.165Z,1.20
2019-01-28T05:11:54.153Z,1.00
2019-01-28T05:12:54.142Z,1.70
2019-01-28T05:14:03.368Z,1.30
2019-01-28T05:14:54.140Z,0.80
2019-01-28T05:15:54.130Z,0.90
2019-01-28T05:16:54.104Z,1.30
2019-01-28T05:17:54.161Z,0.80
2019-01-28T05:18:54.084Z,0.90
2019-01-28T05:19:54.092Z,0.80
2019-01-28T05:20:54.062Z,1.10
2019-01-28T05:21:54.043Z,1.80
2019-01-28T05:22:54.046Z,0.80
2019-01-28T05:23:54.020Z,0.90
2019-01-28T05:24:54.043Z,1.90
2019-01-28T05:25:54.002Z,1.50
2019-01-28T05:26:54.020Z,1.30
2019-01-28T05:27:53.976Z,0.90
2019-01-28T05:28:53.971Z,1.10
2019-01-28T05:29:53.982Z,0.90
2019-01-28T05:30:53.946Z,1.30
2019-01-28T05:31:53.942Z,1.00
2019-01-28T05:32:53.924Z,0.90
2019-01-28T05:33:53.913Z,1.00
2019-01-28T05:34:53.929Z,1.10
2019-01-28T05:35:53.888Z,0.90
2019-01-28T05:36:53.883Z,1.10
2019-01-28T05:37:53.878Z,1.40
2019-01-28T05:38:53.901Z,1.40
2019-01-28T05:39:53.867Z,1.50
2019-01-28T05:40:53.833Z,1.60
2019-01-28T05:41:53.828Z,1.80
2019-01-28T05:42:53.817Z,1.00
2019-01-28T05:43:53.800Z,1.10
2019-01-28T05:44:53.791Z,1.50
2019-01-28T05:45:53.801Z,1.50
2019-01-28T05:46:53.772Z,2.10
2019-01-28T05:48:02.914Z,2.70
2019-01-28T05:49:02.942Z,1.20
2019-01-28T05:49:53.734Z,1.20
2019-01-28T05:50:53.743Z,1.10
2019-01-28T05:51:53.715Z,1.40
2019-01-28T05:52:53.714Z,1.30
2019-01-28T05:53:53.693Z,2.30
2019-01-28T05:54:53.693Z,2.20
2019-01-28T05:55:53.705Z,2.00
2019-01-28T05:56:53.659Z,1.20
2019-01-28T05:57:53.649Z,1.30
2019-01-28T05:58:53.640Z,2.00
2019-01-28T05:59:53.656Z,2.10
2019-01-28T06:00:53.635Z,1.50
2019-01-28T06:01:53.753Z,1.50
2019-01-28T06:02:53.607Z,1.30
2019-01-28T06:03:53.600Z,2.30
2019-01-28T06:04:54.449Z,2.20
2019-01-28T06:05:53.602Z,1.20
2019-01-28T06:06:53.556Z,1.40
2019-01-28T06:08:02.971Z,1.50
2019-01-28T06:08:53.530Z,1.20
2019-01-28T06:09:53.514Z,1.50
2019-01-28T06:10:53.502Z,1.50
2019-01-28T06:11:53.544Z,1.50
2019-01-28T06:12:53.489Z,2.40
2019-01-28T06:13:53.472Z,1.40
2019-01-28T06:14:53.458Z,1.90
2019-01-28T06:15:53.448Z,2.30
2019-01-28T06:16:53.468Z,1.40
2019-01-28T06:17:53.426Z,1.20
2019-01-28T06:18:53.414Z,1.10
2019-01-28T06:19:53.405Z,1.60
2019-01-28T06:20:53.394Z,1.40
2019-01-28T06:21:53.408Z,1.30
2019-01-28T06:22:53.372Z,1.40
2019-01-28T06:23:53.359Z,1.10
2019-01-28T06:24:53.349Z,1.40
2019-01-28T06:25:53.339Z,1.80
2019-01-28T06:26:53.350Z,1.20
2019-01-28T06:27:53.314Z,2.50
2019-01-28T06:28:53.307Z,1.20
2019-01-28T06:29:53.294Z,1.30
2019-01-28T06:30:53.281Z,1.10
2019-01-28T06:31:53.297Z,2.30
2019-01-28T06:32:53.262Z,2.00
2019-01-28T06:33:53.252Z,1.50
2019-01-28T06:34:53.237Z,1.30
2019-01-28T06:35:53.230Z,1.30
2019-01-28T06:36:54.005Z,1.90
2019-01-28T06:37:53.204Z,1.10
2019-01-28T06:38:53.195Z,1.00
2019-01-28T06:39:53.184Z,1.10
2019-01-28T06:40:53.178Z,1.20
2019-01-28T06:41:53.206Z,1.50
2019-01-28T06:42:53.154Z,1.40
2019-01-28T06:43:53.152Z,1.10
2019-01-28T06:44:53.130Z,1.20
2019-01-28T06:45:53.123Z,1.00
2019-01-28T06:46:53.112Z,1.20
2019-01-28T06:47:53.128Z,1.40
2019-01-28T06:48:53.084Z,1.30
2019-01-28T06:49:53.076Z,1.10
2019-01-28T06:50:53.063Z,0.90
2019-01-28T06:51:53.053Z,1.50
2019-01-28T06:52:53.062Z,0.90
2019-01-28T06:53:53.036Z,0.90
2019-01-28T06:54:53.031Z,1.00
2019-01-28T06:55:53.007Z,1.60
2019-01-28T06:56:52.997Z,1.20
2019-01-28T06:57:53.006Z,1.40
2019-01-28T06:58:52.975Z,1.40
2019-01-28T06:59:52.964Z,0.90
2019-01-28T07:00:52.954Z,1.70
2019-01-28T07:01:52.969Z,1.10
2019-01-28T07:02:52.960Z,1.10
2019-01-28T07:03:52.921Z,0.80
2019-01-28T07:04:52.917Z,1.00
2019-01-28T07:05:52.900Z,1.60
2019-01-28T07:06:54.510Z,1.60
2019-01-28T07:07:52.877Z,1.20
2019-01-28T07:08:52.870Z,1.30
2019-01-28T07:09:52.858Z,1.10
2019-01-28T07:10:52.843Z,1.20
2019-01-28T07:13:19.881Z,1.60
2019-01-28T07:13:26.198Z,2.20
2019-01-28T07:14:20.184Z,1.50
2019-01-28T07:15:20.174Z,2.10
2019-01-28T07:16:20.168Z,1.20
2019-01-28T07:17:20.202Z,1.50
2019-01-28T07:18:20.149Z,1.60
2019-01-28T07:19:20.135Z,1.40
2019-01-28T07:20:20.120Z,1.70
2019-01-28T07:21:20.107Z,1.30
2019-01-28T07:22:20.099Z,1.60
2019-01-28T07:23:20.111Z,2.00
2019-01-28T07:24:20.073Z,1.80
2019-01-28T07:25:20.063Z,1.90
2019-01-28T07:26:20.052Z,2.10
2019-01-28T07:27:20.045Z,2.50
2019-01-28T07:28:20.054Z,3.20
2019-01-28T07:29:20.020Z,2.20
2019-01-28T07:30:20.009Z,1.80
2019-01-28T07:31:20.000Z,1.70
2019-01-28T07:32:19.994Z,2.20
2019-01-28T07:33:20.003Z,2.40
2019-01-28T07:34:19.986Z,2.00
2019-01-28T07:35:19.953Z,1.90
2019-01-28T07:36:19.944Z,1.90
2019-01-28T07:37:19.931Z,1.80
2019-01-28T07:38:23.091Z,2.90
2019-01-28T07:39:19.912Z,2.20
2019-01-28T07:40:19.925Z,2.10
2019-01-28T07:41:19.888Z,2.10
2019-01-28T07:42:19.878Z,2.10
2019-01-28T07:43:19.867Z,2.50
2019-01-28T07:44:19.882Z,1.80
2019-01-28T07:45:19.849Z,2.00
2019-01-28T07:46:19.832Z,2.00
2019-01-28T07:47:19.823Z,1.80
2019-01-28T07:48:19.814Z,2.20
2019-01-28T07:49:19.828Z,2.50
2019-01-28T07:50:19.798Z,1.90
2019-01-28T07:51:19.778Z,2.10
2019-01-28T07:52:19.771Z,1.90
2019-01-28T07:53:19.761Z,1.80
2019-01-28T07:54:19.770Z,2.10
2019-01-28T07:55:19.737Z,3.50
2019-01-28T07:56:19.727Z,1.80
2019-01-28T07:57:19.713Z,1.80
2019-01-28T07:58:19.705Z,2.30
2019-01-28T07:59:19.695Z,1.80
2019-01-28T08:00:20.085Z,2.80
2019-01-28T08:01:19.675Z,1.80
2019-01-28T08:02:19.658Z,2.30
2019-01-28T08:03:19.650Z,1.70
2019-01-28T08:04:19.670Z,1.90
2019-01-28T08:05:19.650Z,2.00
2019-01-28T08:06:19.615Z,2.00
2019-01-28T08:07:19.613Z,2.20
2019-01-28T08:08:19.597Z,1.90
2019-01-28T08:09:19.585Z,1.90
2019-01-28T08:10:19.590Z,3.60
2019-01-28T08:31:13.602Z,1.80
2019-01-28T08:32:13.570Z,1.80
2019-01-28T08:33:13.560Z,2.50
2019-01-28T08:34:13.542Z,2.70
2019-01-28T08:35:13.526Z,2.00
2019-01-28T08:36:13.545Z,1.80
2019-01-28T08:37:13.503Z,2.10
2019-01-28T08:38:13.506Z,3.00
2019-01-28T08:39:13.486Z,1.80
2019-01-28T08:40:13.473Z,2.40
2019-01-28T08:41:13.489Z,2.20
2019-01-28T08:42:13.449Z,2.40
2019-01-28T08:43:14.650Z,1.90
2019-01-28T08:44:13.431Z,2.00
2019-01-28T08:45:13.419Z,1.90
2019-01-28T08:46:13.445Z,2.10
2019-01-28T08:47:13.394Z,2.80
2019-01-28T08:48:18.187Z,2.00
2019-01-28T08:49:14.374Z,2.90
2019-01-28T08:50:13.363Z,2.30
2019-01-28T08:51:13.376Z,2.50
2019-01-28T08:52:13.343Z,1.90
2019-01-28T08:53:13.330Z,2.10
2019-01-28T08:54:13.325Z,2.80
2019-01-28T08:55:14.649Z,2.30
2019-01-28T08:56:16.746Z,2.20
2019-01-28T08:57:13.313Z,3.00
2019-01-28T08:58:13.278Z,2.60
2019-01-28T08:59:13.267Z,2.10
2019-01-28T09:00:13.262Z,3.30
2019-01-28T09:01:13.245Z,4.10
2019-01-28T09:02:13.261Z,1.90
2019-01-28T09:03:13.222Z,1.90
2019-01-28T09:04:13.214Z,3.30
2019-01-28T09:05:13.201Z,1.80
2019-01-28T09:06:13.210Z,2.20
2019-01-28T09:07:13.206Z,2.10
2019-01-28T09:08:13.174Z,2.20
2019-01-28T09:09:13.157Z,2.00
2019-01-28T09:10:13.146Z,1.90
2019-01-28T09:11:13.139Z,2.10
2019-01-28T09:12:13.754Z,2.00
2019-01-28T09:13:13.112Z,1.80
2019-01-28T09:14:13.108Z,2.30
2019-01-28T09:15:13.092Z,2.10
2019-01-28T09:16:13.081Z,2.20
2019-01-28T09:17:13.083Z,2.10
2019-01-28T09:18:13.113Z,2.10
2019-01-28T09:19:13.055Z,2.00
2019-01-28T09:20:13.053Z,2.00
2019-01-28T09:21:13.036Z,2.10
2019-01-28T09:22:13.022Z,1.70
2019-01-28T09:23:13.036Z,2.00
2019-01-28T09:24:12.998Z,2.40
2019-01-28T09:25:12.983Z,3.30
2019-01-28T09:26:12.974Z,3.70
2019-01-28T09:27:12.966Z,2.00
2019-01-28T09:28:12.974Z,2.00
2019-01-28T09:29:12.938Z,2.40
2019-01-28T09:30:12.927Z,2.20
2019-01-28T09:31:12.918Z,2.20
2019-01-28T09:32:12.910Z,2.10
2019-01-28T09:33:12.919Z,1.80
2019-01-28T09:34:12.883Z,2.20
2019-01-28T09:35:12.875Z,2.00
2019-01-28T09:36:12.862Z,2.30
2019-01-28T09:37:14.256Z,1.80
2019-01-28T09:38:12.841Z,2.10
2019-01-28T09:39:12.853Z,2.00
2019-01-28T09:40:12.819Z,2.10
2019-01-28T09:41:12.810Z,2.50
2019-01-28T09:42:12.801Z,3.20
2019-01-28T09:43:12.787Z,2.20
2019-01-28T09:44:12.800Z,1.90
2019-01-28T09:45:12.773Z,1.90
2019-01-28T09:46:12.754Z,1.70
2019-01-28T09:47:12.742Z,2.20
2019-01-28T09:48:12.740Z,1.90
2019-01-28T09:49:14.032Z,1.80
2019-01-28T09:50:12.713Z,2.10
2019-01-28T09:51:12.705Z,1.70
2019-01-28T09:52:12.694Z,1.90
2019-01-28T09:53:12.683Z,1.80
2019-01-28T09:54:12.673Z,1.90
2019-01-28T09:55:12.682Z,2.00
2019-01-28T09:56:12.650Z,1.80
2019-01-28T09:57:12.637Z,1.80
2019-01-28T09:58:12.627Z,1.80
2019-01-28T09:59:12.619Z,2.20
2019-01-28T10:00:12.628Z,2.50
2019-01-28T10:01:12.597Z,2.10
2019-01-28T10:02:12.587Z,2.10
2019-01-28T10:03:12.576Z,3.10
2019-01-28T10:04:12.561Z,2.10
2019-01-28T10:05:12.576Z,1.90
2019-01-28T10:06:12.543Z,2.50
2019-01-28T10:07:12.529Z,2.40
2019-01-28T10:08:12.539Z,3.20
2019-01-28T10:09:12.510Z,2.40
2019-01-28T10:10:13.332Z,2.40
2019-01-28T10:11:12.486Z,2.50
2019-01-28T10:12:12.478Z,3.50
2019-01-28T10:13:12.461Z,2.20
2019-01-28T10:14:12.454Z,2.60
2019-01-28T10:15:12.460Z,3.90
2019-01-28T10:16:12.427Z,2.30
2019-01-28T10:17:12.421Z,3.30
2019-01-28T10:18:12.405Z,2.30
2019-01-28T10:19:12.395Z,2.10
2019-01-28T10:20:12.446Z,2.40
2019-01-28T10:21:12.372Z,2.40
2019-01-28T10:22:12.372Z,2.40
2019-01-28T10:23:12.356Z,2.40
2019-01-28T10:24:12.356Z,2.40
2019-01-28T10:25:12.337Z,4.00
2019-01-28T10:26:12.356Z,2.60
2019-01-28T10:27:12.315Z,2.50
2019-01-28T10:28:12.417Z,2.80
2019-01-28T10:29:12.307Z,2.40
2019-01-28T10:30:12.364Z,2.30
2019-01-28T10:31:12.302Z,2.80
2019-01-28T10:32:12.275Z,2.50
2019-01-28T10:33:12.271Z,2.50
2019-01-28T10:34:12.242Z,2.60
2019-01-28T10:42:52.679Z,3.90
2019-01-28T10:43:25.646Z,2.60
2019-01-28T10:44:25.648Z,3.10
2019-01-28T10:45:25.666Z,3.10
2019-01-28T10:46:25.687Z,3.40
2019-01-28T10:47:25.602Z,2.80
2019-01-28T10:48:25.600Z,2.50
2019-01-28T10:49:25.588Z,2.30
2019-01-28T10:50:25.575Z,3.30
2019-01-28T10:51:25.685Z,2.70
2019-01-28T10:52:25.553Z,2.90
2019-01-28T10:53:25.543Z,2.20
2019-01-28T10:54:25.565Z,2.40
2019-01-28T10:55:25.537Z,2.90
2019-01-28T10:56:26.209Z,2.20
2019-01-28T10:57:25.577Z,3.30
2019-01-28T10:58:25.741Z,2.40
2019-01-28T10:59:25.498Z,2.10
2019-01-28T11:00:25.470Z,3.10
2019-01-28T11:01:25.490Z,2.40
2019-01-28T11:02:25.559Z,2.20
2019-01-28T11:03:25.434Z,2.60
2019-01-28T11:04:25.460Z,2.40
2019-01-28T11:05:25.449Z,2.00
2019-01-28T11:06:25.441Z,3.40
2019-01-28T11:07:25.418Z,2.80
2019-01-28T11:08:25.433Z,3.10
2019-01-28T11:09:25.384Z,2.70
2019-01-28T11:10:25.491Z,3.00
2019-01-28T11:20:05.416Z,2.80
2019-01-28T11:21:05.313Z,2.30
2019-01-28T11:22:05.229Z,3.00
2019-01-28T11:23:05.426Z,2.20
2019-01-28T11:24:05.257Z,2.60
2019-01-28T11:25:05.207Z,2.40
2019-01-28T11:26:05.206Z,4.10
2019-01-28T11:27:05.269Z,1.90
2019-01-28T11:28:05.217Z,2.90
2019-01-28T11:29:05.224Z,1.80
2019-01-28T11:30:05.134Z,2.70
2019-01-28T11:31:05.261Z,2.10
2019-01-28T11:32:05.234Z,1.70
2019-01-28T11:33:05.156Z,2.10
2019-01-28T11:34:05.151Z,2.90
2019-01-28T11:35:05.184Z,1.70
2019-01-28T11:36:05.852Z,2.80
2019-01-28T11:37:05.066Z,3.10
2019-01-28T11:38:06.824Z,2.90
2019-01-28T11:39:05.130Z,3.80
2019-01-28T11:40:05.065Z,5.30
2019-01-28T11:41:05.028Z,4.10
2019-01-28T11:42:05.035Z,4.80
2019-01-28T11:43:05.081Z,5.60
2019-01-28T11:44:05.136Z,6.00
2019-01-28T11:45:05.062Z,5.10
2019-01-28T11:46:05.007Z,5.40
2019-01-28T11:47:04.954Z,6.20
2019-01-28T11:48:05.090Z,7.90
2019-01-28T11:49:06.822Z,6.90
2019-01-28T11:50:04.925Z,6.10
2019-01-28T11:51:04.929Z,6.00
2019-01-28T11:52:04.894Z,8.60
2019-01-28T11:53:04.935Z,7.00
2019-01-28T11:54:04.917Z,7.70
2019-01-28T11:55:04.862Z,9.60
2019-01-28T11:56:04.848Z,10.40
2019-01-28T11:57:04.837Z,7.10
2019-01-28T11:58:04.831Z,10.90
2019-01-28T11:59:04.843Z,11.70
2019-01-28T12:00:04.800Z,13.60
2019-01-28T12:01:04.792Z,12.50
2019-01-28T12:02:04.781Z,10.60
2019-01-28T12:03:04.778Z,14.40
2019-01-28T12:04:04.811Z,12.70
2019-01-28T12:05:04.770Z,12.10
2019-01-28T12:06:04.734Z,13.20
2019-01-28T12:07:04.727Z,14.30
2019-01-28T12:08:04.719Z,13.50
2019-01-28T12:09:04.753Z,11.70
2019-01-28T12:10:04.689Z,14.40
2019-01-28T12:11:04.692Z,14.30
2019-01-28T12:12:04.681Z,16.80
2019-01-28T12:13:04.660Z,14.40
2019-01-28T12:14:04.679Z,19.00
2019-01-28T12:15:13.845Z,18.50
2019-01-28T12:17:11.403Z,15.80
2019-01-28T12:18:27.656Z,13.60
2019-01-28T12:23:34.643Z,12.50
2019-01-28T12:24:33.424Z,11.90
2019-01-28T12:25:33.437Z,11.20
2019-01-28T12:26:33.441Z,15.00
2019-01-28T12:27:33.489Z,13.20
2019-01-28T12:28:33.356Z,13.40
2019-01-28T12:29:33.995Z,12.40
2019-01-28T12:30:33.339Z,14.70
2019-01-28T12:31:33.326Z,12.00
2019-01-28T12:32:33.315Z,12.10
2019-01-28T12:33:33.303Z,11.00
2019-01-28T12:34:33.317Z,12.80
2019-01-28T12:35:33.288Z,8.70
2019-01-28T12:36:33.283Z,12.00
2019-01-28T12:37:33.301Z,12.00
2019-01-28T12:38:33.251Z,12.10
2019-01-28T12:39:33.998Z,15.90
2019-01-28T12:40:33.251Z,10.10
2019-01-28T12:41:33.226Z,12.50
2019-01-28T12:42:33.205Z,17.20
2019-01-28T12:43:33.201Z,14.00
2019-01-28T12:44:33.186Z,12.80
2019-01-28T12:45:33.198Z,13.20
2019-01-28T12:46:33.167Z,13.10
2019-01-28T12:47:33.157Z,10.00
2019-01-28T12:48:33.155Z,12.10
2019-01-28T12:49:33.144Z,13.80
2019-01-28T12:50:33.153Z,11.60
2019-01-28T12:51:33.155Z,12.20
2019-01-28T12:52:33.101Z,11.00
2019-01-28T12:53:33.126Z,12.60
2019-01-28T12:54:33.085Z,15.60
2019-01-28T12:55:34.016Z,11.10
2019-01-28T12:56:33.061Z,12.50
2019-01-28T12:57:33.056Z,11.70
2019-01-28T12:58:33.043Z,12.60
2019-01-28T12:59:33.035Z,11.70
2019-01-28T13:00:33.143Z,11.90
2019-01-28T13:01:33.009Z,8.50
2019-01-28T13:02:32.997Z,10.50
2019-01-28T13:03:32.981Z,10.00
2019-01-28T13:04:32.971Z,8.90
2019-01-28T13:05:32.999Z,10.60
2019-01-28T13:06:32.955Z,9.00
2019-01-28T13:07:32.937Z,10.50
2019-01-28T13:08:33.001Z,10.70
2019-01-28T13:09:33.041Z,10.50
2019-01-28T13:10:32.930Z,9.20
2019-01-28T13:11:32.951Z,11.00
2019-01-28T13:26:06.812Z,13.50
2019-01-28T13:26:39.779Z,8.80
2019-01-28T13:27:39.806Z,11.80
2019-01-28T13:28:39.845Z,11.20
2019-01-28T13:29:39.752Z,12.20
2019-01-28T13:30:39.751Z,13.80
2019-01-28T13:31:39.749Z,11.10
2019-01-28T13:32:39.718Z,12.50
2019-01-28T13:33:39.723Z,10.30
2019-01-28T13:34:39.706Z,9.10
2019-01-28T13:35:39.689Z,9.20
2019-01-28T13:36:39.701Z,9.10
2019-01-28T13:37:39.674Z,11.50
2019-01-28T13:38:39.654Z,10.40
2019-01-28T13:56:10.484Z,8.90
2019-01-28T13:56:43.469Z,13.90
2019-01-28T13:57:43.483Z,11.40
2019-01-28T13:58:43.440Z,10.40
2019-01-28T13:59:43.430Z,11.10
2019-01-28T14:00:43.445Z,12.60
2019-01-28T14:01:43.405Z,9.20
2019-01-28T14:02:43.447Z,8.90
2019-01-28T14:03:43.387Z,10.10
2019-01-28T14:04:43.427Z,8.90
2019-01-28T14:05:43.422Z,7.40
2019-01-28T14:06:43.510Z,8.00
2019-01-28T14:07:43.420Z,9.60
2019-01-28T14:08:43.349Z,10.50
2019-01-28T14:09:43.317Z,10.20
2019-01-28T14:10:43.307Z,11.30
2019-01-28T14:11:43.297Z,9.80
2019-01-28T14:12:43.313Z,10.20
2019-01-28T14:13:43.277Z,11.80
2019-01-28T14:14:43.262Z,8.80
2019-01-28T14:15:43.255Z,11.80
2019-01-28T14:16:43.241Z,10.00
2019-01-28T14:17:43.257Z,14.30
2019-01-28T14:18:43.232Z,11.60
2019-01-28T14:19:46.546Z,15.40
2019-01-28T14:20:43.203Z,11.90
2019-01-28T14:21:43.195Z,12.10
2019-01-28T14:22:43.206Z,12.40
2019-01-28T14:23:43.173Z,14.30
2019-01-28T14:24:43.164Z,11.70
2019-01-28T14:25:43.163Z,14.70
2019-01-28T14:26:43.137Z,11.90
2019-01-28T14:27:43.153Z,11.00